Time;durP1;ratioP1;P1;durP2;ratioP2;P2;SDS_P1;SDS_P2;PMS_P1;PMS_P2;Temp;Humidity;BMP_temperature;BMP_pressure;BME280_temperature;BME280_humidity;BME280_pressure;Samples;Min_cycle;Max_cycle;Signal;HPM_P1;HPM_P2
2023/03/17 00:01:05;;;;;;;8.35;2.50;;;;;;;;;;5094705;28;20069;-48
2023/03/17 00:03:34;;;;;;;3.17;1.73;;;;;;;;;;5093328;28;20385;-48
2023/03/17 00:06:00;;;;;;;7.47;2.22;;;;;;;;;;5092952;28;20027;-50
2023/03/17 00:08:27;;;;;;;5.55;1.95;;;;;;;;;;5094204;28;20032;-48
2023/03/17 00:10:53;;;;;;;6.82;1.98;;;;;;;;;;5094845;28;20051;-48
2023/03/17 00:13:18;;;;;;;9.27;1.95;;;;;;;;;;5093228;28;20028;-48
2023/03/17 00:15:51;;;;;;;7.13;2.15;;;;;;;;;;5094916;28;20016;-48
2023/03/17 00:18:17;;;;;;;7.63;2.28;;;;;;;;;;5093392;28;20059;-48
2023/03/17 00:20:43;;;;;;;6.68;1.90;;;;;;;;;;5094340;28;20026;-48
2023/03/17 00:23:15;;;;;;;9.80;2.65;;;;;;;;;;5092437;28;20020;-48
2023/03/17 00:25:42;;;;;;;7.68;1.88;;;;;;;;;;5094577;28;20020;-48
2023/03/17 00:28:11;;;;;;;8.18;2.38;;;;;;;;;;5094219;28;20022;-48
2023/03/17 00:30:37;;;;;;;7.13;2.20;;;;;;;;;;5092957;28;20115;-48
2023/03/17 00:33:03;;;;;;;6.80;2.40;;;;;;;;;;5093839;28;20440;-49
2023/03/17 00:35:28;;;;;;;8.27;2.22;;;;;;;;;;5093935;28;20014;-48
2023/03/17 00:37:56;;;;;;;9.00;2.03;;;;;;;;;;5093027;28;20097;-48
2023/03/17 00:40:28;;;;;;;4.32;1.60;;;;;;;;;;5094138;28;20517;-49
2023/03/17 00:42:53;;;;;;;5.68;2.90;;;;;;;;;;5094202;28;20024;-49
2023/03/17 00:45:20;;;;;;;4.15;1.45;;;;;;;;;;5092912;28;20031;-48
2023/03/17 00:47:48;;;;;;;7.20;2.00;;;;;;;;;;5092801;28;20024;-52
2023/03/17 00:50:15;;;;;;;6.85;1.70;;;;;;;;;;5093775;28;20086;-48
2023/03/17 00:52:41;;;;;;;9.00;2.85;;;;;;;;;;5092582;28;20024;-48
2023/03/17 00:55:08;;;;;;;9.68;2.38;;;;;;;;;;5092106;28;20069;-51
2023/03/17 00:57:38;;;;;;;7.60;2.30;;;;;;;;;;5093294;28;20062;-48
2023/03/17 01:00:05;;;;;;;6.63;1.95;;;;;;;;;;5093945;28;20057;-48
2023/03/17 01:02:31;;;;;;;7.38;2.80;;;;;;;;;;5092355;28;20019;-52
2023/03/17 01:04:57;;;;;;;7.85;2.28;;;;;;;;;;5093737;28;20639;-49
2023/03/17 01:07:23;;;;;;;5.60;2.10;;;;;;;;;;5093833;28;20020;-49
2023/03/17 01:09:48;;;;;;;9.27;2.20;;;;;;;;;;5092401;28;20043;-48
2023/03/17 01:12:14;;;;;;;7.15;1.83;;;;;;;;;;5075738;28;20020;-48
2023/03/17 01:14:39;;;;;;;7.20;3.28;;;;;;;;;;5092268;28;20012;-49
2023/03/17 01:17:12;;;;;;;4.13;2.45;;;;;;;;;;5092908;28;20032;-50
2023/03/17 01:19:38;;;;;;;8.77;2.90;;;;;;;;;;5096336;28;20024;-50
2023/03/17 01:22:04;;;;;;;5.18;2.30;;;;;;;;;;5096314;28;20020;-51
2023/03/17 01:24:30;;;;;;;8.02;2.30;;;;;;;;;;5097270;28;20125;-50
2023/03/17 01:26:56;;;;;;;6.32;2.13;;;;;;;;;;5095613;28;20016;-48
2023/03/17 01:29:21;;;;;;;10.00;2.63;;;;;;;;;;5094074;28;20054;-52
2023/03/17 01:31:47;;;;;;;11.95;2.67;;;;;;;;;;5092543;28;20476;-49
2023/03/17 01:34:12;;;;;;;6.38;2.53;;;;;;;;;;5094260;28;20093;-48
2023/03/17 01:36:38;;;;;;;6.78;2.28;;;;;;;;;;5093995;28;20063;-48
2023/03/17 01:39:04;;;;;;;9.82;2.45;;;;;;;;;;5095761;28;20069;-48
2023/03/17 01:41:32;;;;;;;6.38;3.15;;;;;;;;;;5093550;28;20054;-49
2023/03/17 01:44:03;;;;;;;6.65;2.20;;;;;;;;;;5092933;28;20495;-49
2023/03/17 01:46:30;;;;;;;8.13;2.63;;;;;;;;;;5092950;28;20028;-48
2023/03/17 01:48:59;;;;;;;8.52;2.67;;;;;;;;;;5091791;28;20043;-49
2023/03/17 01:51:35;;;;;;;5.10;1.98;;;;;;;;;;5091537;28;20484;-49
2023/03/17 01:54:02;;;;;;;9.20;2.80;;;;;;;;;;5091570;28;20169;-49
2023/03/17 01:56:29;;;;;;;7.65;2.05;;;;;;;;;;5092638;28;20477;-49
2023/03/17 01:58:55;;;;;;;7.00;1.95;;;;;;;;;;5091346;28;20066;-47
2023/03/17 02:01:24;;;;;;;8.27;2.55;;;;;;;;;;5093049;28;20016;-49
2023/03/17 02:03:52;;;;;;;9.77;2.42;;;;;;;;;;5093000;28;20039;-49
2023/03/17 02:06:18;;;;;;;6.95;2.58;;;;;;;;;;5091777;28;20020;-47
2023/03/17 02:08:43;;;;;;;8.02;2.95;;;;;;;;;;5093583;28;20031;-57
2023/03/17 02:11:10;;;;;;;5.97;2.40;;;;;;;;;;5092586;28;20027;-49
2023/03/17 02:13:36;;;;;;;10.75;3.20;;;;;;;;;;5091585;28;20111;-48
2023/03/17 02:16:03;;;;;;;8.43;2.60;;;;;;;;;;5093096;28;20456;-48
2023/03/17 02:18:28;;;;;;;7.70;3.03;;;;;;;;;;5093115;28;20111;-49
2023/03/17 02:21:14;;;;;;;6.80;3.00;;;;;;;;;;5092903;28;20048;-49
2023/03/17 02:23:39;;;;;;;11.77;2.25;;;;;;;;;;5093272;28;20051;-48
2023/03/17 02:26:06;;;;;;;9.63;3.20;;;;;;;;;;5092081;28;20020;-48
2023/03/17 02:28:33;;;;;;;7.00;2.40;;;;;;;;;;5092651;28;20063;-48
2023/03/17 02:30:58;;;;;;;7.88;2.30;;;;;;;;;;5095144;28;20058;-48
2023/03/17 02:33:26;;;;;;;5.45;1.50;;;;;;;;;;5095476;28;20016;-48
2023/03/17 02:35:51;;;;;;;4.82;1.80;;;;;;;;;;5096707;28;20357;-49
2023/03/17 02:38:17;;;;;;;7.60;2.10;;;;;;;;;;5094915;28;20016;-49
2023/03/17 02:40:42;;;;;;;5.25;1.85;;;;;;;;;;5096784;28;20491;-49
2023/03/17 02:43:08;;;;;;;6.25;2.20;;;;;;;;;;5095133;28;20012;-56
2023/03/17 02:45:34;;;;;;;6.43;2.43;;;;;;;;;;5099684;28;20020;-49
2023/03/17 02:47:59;;;;;;;5.82;2.22;;;;;;;;;;5098191;28;20346;-56
2023/03/17 02:50:26;;;;;;;4.77;1.53;;;;;;;;;;5097119;28;20035;-53
2023/03/17 02:52:51;;;;;;;5.28;1.80;;;;;;;;;;5098093;28;20023;-48
2023/03/17 02:55:17;;;;;;;4.53;2.00;;;;;;;;;;5096294;28;20012;-47
2023/03/17 02:57:42;;;;;;;7.07;1.63;;;;;;;;;;5096067;28;20055;-49
2023/03/17 03:00:10;;;;;;;5.90;1.83;;;;;;;;;;5096243;28;20016;-48
2023/03/17 03:02:36;;;;;;;7.57;1.77;;;;;;;;;;5095471;28;20042;-49
2023/03/17 03:05:02;;;;;;;3.80;1.58;;;;;;;;;;5097609;28;20024;-50
2023/03/17 03:07:27;;;;;;;5.63;1.58;;;;;;;;;;5097858;28;20111;-49
2023/03/17 03:09:53;;;;;;;5.55;1.77;;;;;;;;;;5097100;28;20063;-52
2023/03/17 03:12:18;;;;;;;5.70;1.70;;;;;;;;;;5096299;28;20452;-57
2023/03/17 03:14:43;;;;;;;2.25;1.35;;;;;;;;;;5095571;28;20020;-48
2023/03/17 03:17:09;;;;;;;3.00;0.93;;;;;;;;;;5097256;28;20465;-48
2023/03/17 03:19:35;;;;;;;7.53;1.70;;;;;;;;;;5097140;28;20036;-49
2023/03/17 03:22:00;;;;;;;7.07;1.85;;;;;;;;;;5097963;28;20065;-49
2023/03/17 03:24:26;;;;;;;5.53;1.23;;;;;;;;;;5098331;28;20020;-53
2023/03/17 03:26:52;;;;;;;3.47;1.20;;;;;;;;;;5098752;28;20036;-50
2023/03/17 03:29:19;;;;;;;4.57;1.23;;;;;;;;;;5096098;28;20032;-48
2023/03/17 03:31:47;;;;;;;4.67;1.30;;;;;;;;;;5098564;28;20023;-49
2023/03/17 03:34:13;;;;;;;4.47;1.38;;;;;;;;;;5098789;28;20020;-53
2023/03/17 03:36:38;;;;;;;5.20;1.00;;;;;;;;;;5098481;28;20035;-48
2023/03/17 03:39:04;;;;;;;7.73;1.97;;;;;;;;;;5098287;28;20461;-53
2023/03/17 03:41:29;;;;;;;2.00;0.65;;;;;;;;;;5098441;28;20072;-59
2023/03/17 03:43:55;;;;;;;7.43;1.63;;;;;;;;;;5099218;28;20017;-52
2023/03/17 03:46:21;;;;;;;4.50;1.30;;;;;;;;;;5098430;28;20012;-55
2023/03/17 03:48:47;;;;;;;6.72;1.45;;;;;;;;;;5096431;28;20065;-48
2023/03/17 03:51:12;;;;;;;7.23;1.77;;;;;;;;;;5096262;28;20019;-58
2023/03/17 03:53:39;;;;;;;2.97;1.40;;;;;;;;;;5098005;28;20020;-57
2023/03/17 03:56:04;;;;;;;11.83;2.67;;;;;;;;;;5096951;28;20023;-60
2023/03/17 03:58:30;;;;;;;5.47;1.60;;;;;;;;;;5097335;28;20492;-48
2023/03/17 04:00:55;;;;;;;9.80;2.30;;;;;;;;;;5094153;28;20016;-47
2023/03/17 04:03:21;;;;;;;6.83;1.80;;;;;;;;;;5094988;28;20027;-48
2023/03/17 04:05:46;;;;;;;4.37;1.20;;;;;;;;;;5093658;28;20016;-49
2023/03/17 04:08:12;;;;;;;5.87;2.43;;;;;;;;;;5093626;28;20350;-48
2023/03/17 04:10:37;;;;;;;6.97;2.00;;;;;;;;;;5093764;28;20016;-58
2023/03/17 04:13:03;;;;;;;4.63;1.37;;;;;;;;;;5094081;28;20051;-49
2023/03/17 04:15:29;;;;;;;3.80;1.00;;;;;;;;;;5093322;28;20425;-49
2023/03/17 04:17:56;;;;;;;8.68;1.52;;;;;;;;;;5093172;28;20027;-49
2023/03/17 04:20:22;;;;;;;6.47;1.07;;;;;;;;;;5094400;28;20078;-51
2023/03/17 04:22:48;;;;;;;5.35;1.50;;;;;;;;;;5094458;28;20356;-48
2023/03/17 04:25:14;;;;;;;4.10;0.95;;;;;;;;;;5094437;28;20016;-47
2023/03/17 04:27:40;;;;;;;10.30;3.20;;;;;;;;;;5093537;28;20039;-48
2023/03/17 04:30:06;;;;;;;3.73;1.30;;;;;;;;;;5094530;28;20098;-48
2023/03/17 04:32:31;;;;;;;6.87;1.70;;;;;;;;;;5093299;28;20032;-52
2023/03/17 04:34:57;;;;;;;7.63;1.97;;;;;;;;;;5095330;28;20027;-57
2023/03/17 04:37:23;;;;;;;5.20;1.50;;;;;;;;;;5095547;28;20028;-58
2023/03/17 04:39:50;;;;;;;2.72;1.58;;;;;;;;;;5096669;28;20099;-59
2023/03/17 04:42:16;;;;;;;4.35;1.05;;;;;;;;;;5095201;28;20015;-48
2023/03/17 04:44:42;;;;;;;2.73;1.00;;;;;;;;;;5096728;28;20057;-51
2023/03/17 04:47:09;;;;;;;4.70;1.33;;;;;;;;;;5096066;28;20020;-49
2023/03/17 04:49:35;;;;;;;2.45;0.88;;;;;;;;;;5092511;28;20063;-49
2023/03/17 04:52:00;;;;;;;6.83;1.23;;;;;;;;;;5091528;28;20055;-48
2023/03/17 04:54:26;;;;;;;8.47;1.63;;;;;;;;;;5094105;28;20028;-51
2023/03/17 04:56:51;;;;;;;3.05;1.45;;;;;;;;;;5093870;28;20454;-48
2023/03/17 04:59:17;;;;;;;6.18;1.35;;;;;;;;;;5094224;28;20070;-49
2023/03/17 05:01:43;;;;;;;6.05;1.20;;;;;;;;;;5093238;28;20008;-48
2023/03/17 05:04:08;;;;;;;2.85;1.38;;;;;;;;;;5094172;28;20099;-48
2023/03/17 05:06:34;;;;;;;4.28;1.00;;;;;;;;;;5093458;28;20036;-50
2023/03/17 05:09:00;;;;;;;4.32;0.85;;;;;;;;;;5093970;28;20044;-50
2023/03/17 05:11:27;;;;;;;4.22;0.95;;;;;;;;;;5094776;28;20027;-54
2023/03/17 05:13:52;;;;;;;3.87;1.07;;;;;;;;;;5094148;28;20108;-49
2023/03/17 05:16:18;;;;;;;4.93;1.45;;;;;;;;;;5094196;28;20058;-49
2023/03/17 05:18:44;;;;;;;5.65;1.20;;;;;;;;;;5092458;28;20023;-49
2023/03/17 05:21:09;;;;;;;4.68;0.88;;;;;;;;;;5093351;28;20372;-50
2023/03/17 05:23:35;;;;;;;3.25;1.10;;;;;;;;;;5092636;28;20050;-49
2023/03/17 05:26:01;;;;;;;2.53;0.80;;;;;;;;;;5093888;28;20020;-51
2023/03/17 05:28:26;;;;;;;3.42;0.60;;;;;;;;;;5093889;28;20024;-54
2023/03/17 05:30:53;;;;;;;4.40;0.80;;;;;;;;;;5092898;28;20027;-48
2023/03/17 05:33:20;;;;;;;4.10;0.73;;;;;;;;;;5094657;28;20496;-50
2023/03/17 05:35:46;;;;;;;6.82;0.80;;;;;;;;;;5096395;28;20031;-48
2023/03/17 05:38:12;;;;;;;4.95;0.70;;;;;;;;;;5092677;28;20415;-50
2023/03/17 05:40:38;;;;;;;2.05;1.02;;;;;;;;;;5094332;28;20020;-49
2023/03/17 05:43:04;;;;;;;2.03;0.17;;;;;;;;;;5093494;28;20012;-49
2023/03/17 05:45:29;;;;;;;0.40;0.20;;;;;;;;;;5092120;28;20471;-49
2023/03/17 05:47:55;;;;;;;2.70;1.50;;;;;;;;;;5092910;28;20021;-49
2023/03/17 05:50:21;;;;;;;0.88;0.40;;;;;;;;;;5094803;28;20081;-49
2023/03/17 05:52:48;;;;;;;1.08;0.40;;;;;;;;;;5097382;28;20101;-49
2023/03/17 05:55:13;;;;;;;3.13;0.60;;;;;;;;;;5093781;28;20020;-56
2023/03/17 05:57:39;;;;;;;6.50;0.90;;;;;;;;;;5093822;28;20048;-52
2023/03/17 06:00:06;;;;;;;3.80;0.47;;;;;;;;;;5094823;28;20062;-50
2023/03/17 06:02:34;;;;;;;2.25;0.50;;;;;;;;;;5093047;28;20070;-51
2023/03/17 06:05:00;;;;;;;0.20;0.17;;;;;;;;;;5098224;28;20028;-53
2023/03/17 06:07:25;;;;;;;0.57;0.20;;;;;;;;;;5099048;28;20524;-48
2023/03/17 06:09:51;;;;;;;3.13;0.17;;;;;;;;;;5097220;28;20039;-49
2023/03/17 06:12:16;;;;;;;1.92;0.40;;;;;;;;;;5098484;28;20111;-49
2023/03/17 06:14:42;;;;;;;2.42;0.63;;;;;;;;;;5097597;28;20103;-48
2023/03/17 06:17:07;;;;;;;0.45;0.38;;;;;;;;;;5096261;28;20020;-49
2023/03/17 06:19:33;;;;;;;1.88;0.50;;;;;;;;;;5097645;28;20020;-47
2023/03/17 06:21:58;;;;;;;1.20;0.47;;;;;;;;;;5096713;28;20024;-49
2023/03/17 06:24:24;;;;;;;0.50;0.15;;;;;;;;;;5098490;28;20160;-50
2023/03/17 06:26:51;;;;;;;0.88;0.43;;;;;;;;;;5099684;28;20140;-50
2023/03/17 06:29:18;;;;;;;1.83;0.68;;;;;;;;;;5097176;28;20064;-48
2023/03/17 06:31:49;;;;;;;2.00;0.93;;;;;;;;;;5097341;28;20024;-48
2023/03/17 06:34:15;;;;;;;1.58;0.30;;;;;;;;;;5098424;28;20408;-51
2023/03/17 06:36:40;;;;;;;3.70;0.50;;;;;;;;;;5098242;28;20461;-50
2023/03/17 06:39:08;;;;;;;2.15;0.93;;;;;;;;;;5096972;28;20023;-50
2023/03/17 06:41:33;;;;;;;1.80;0.40;;;;;;;;;;5096900;28;20028;-49
2023/03/17 06:44:00;;;;;;;2.67;0.20;;;;;;;;;;5096035;28;20024;-51
2023/03/17 06:46:26;;;;;;;4.88;0.77;;;;;;;;;;5096811;28;20027;-55
2023/03/17 06:48:51;;;;;;;3.13;0.60;;;;;;;;;;5096274;28;20024;-50
2023/03/17 06:51:16;;;;;;;1.88;0.75;;;;;;;;;;5096107;28;20070;-49
2023/03/17 06:53:42;;;;;;;4.80;0.30;;;;;;;;;;5097261;28;20438;-49
2023/03/17 06:56:08;;;;;;;1.33;0.73;;;;;;;;;;5095925;28;20439;-49
2023/03/17 06:58:35;;;;;;;1.55;0.35;;;;;;;;;;5095204;28;20048;-49
2023/03/17 07:01:01;;;;;;;2.45;0.43;;;;;;;;;;5095988;28;20066;-53
2023/03/17 07:03:26;;;;;;;5.20;0.55;;;;;;;;;;5094632;28;20035;-51
2023/03/17 07:05:53;;;;;;;1.52;0.30;;;;;;;;;;5097164;28;20376;-49
2023/03/17 07:08:18;;;;;;;1.17;0.95;;;;;;;;;;5095813;28;20062;-51
2023/03/17 07:10:44;;;;;;;4.07;0.80;;;;;;;;;;5094754;28;20051;-50
2023/03/17 07:13:10;;;;;;;0.75;0.22;;;;;;;;;;5094126;28;20031;-50
2023/03/17 07:15:36;;;;;;;3.20;0.65;;;;;;;;;;5094317;28;20055;-54
2023/03/17 07:18:02;;;;;;;5.38;1.15;;;;;;;;;;5093842;28;20024;-50
2023/03/17 07:20:28;;;;;;;6.43;1.15;;;;;;;;;;5095352;28;20478;-51
2023/03/17 07:22:54;;;;;;;3.20;1.25;;;;;;;;;;5095052;28;20121;-49
2023/03/17 07:25:19;;;;;;;4.32;0.70;;;;;;;;;;5094832;28;20020;-51
2023/03/17 07:27:45;;;;;;;3.30;0.40;;;;;;;;;;5093990;28;20024;-49
2023/03/17 07:30:12;;;;;;;2.10;0.60;;;;;;;;;;5093892;28;20692;-49
2023/03/17 07:32:38;;;;;;;4.30;0.77;;;;;;;;;;5093683;28;20030;-52
2023/03/17 07:35:05;;;;;;;1.15;0.35;;;;;;;;;;5093387;28;20031;-49
2023/03/17 07:37:30;;;;;;;2.03;1.00;;;;;;;;;;5094800;28;20012;-50
2023/03/17 07:39:56;;;;;;;5.85;0.57;;;;;;;;;;5094959;28;20089;-50
2023/03/17 07:42:21;;;;;;;0.90;0.30;;;;;;;;;;5094847;28;20016;-49
2023/03/17 07:44:47;;;;;;;1.10;0.30;;;;;;;;;;5093418;28;20028;-51
2023/03/17 07:47:13;;;;;;;2.58;0.65;;;;;;;;;;5093838;28;20016;-50
2023/03/17 07:49:39;;;;;;;1.80;0.57;;;;;;;;;;5093444;28;20392;-49
2023/03/17 07:52:05;;;;;;;2.30;0.40;;;;;;;;;;5092934;28;20020;-50
2023/03/17 07:54:31;;;;;;;1.08;0.50;;;;;;;;;;5094379;28;20018;-54
2023/03/17 07:56:56;;;;;;;3.78;0.70;;;;;;;;;;5092912;28;20128;-57
2023/03/17 07:59:22;;;;;;;2.92;0.40;;;;;;;;;;5094446;28;20490;-50
2023/03/17 08:01:49;;;;;;;1.88;0.73;;;;;;;;;;5093990;28;20483;-50
2023/03/17 08:04:15;;;;;;;3.90;0.60;;;;;;;;;;5092972;28;20433;-50
2023/03/17 08:06:41;;;;;;;2.03;0.63;;;;;;;;;;5094026;28;20048;-49
2023/03/17 08:09:07;;;;;;;3.58;0.63;;;;;;;;;;5094003;28;20063;-53
2023/03/17 08:11:33;;;;;;;2.90;0.80;;;;;;;;;;5093625;28;20119;-50
2023/03/17 08:14:00;;;;;;;3.15;0.75;;;;;;;;;;5094390;28;20440;-51
2023/03/17 08:16:26;;;;;;;1.67;0.30;;;;;;;;;;5095433;28;20020;-49
2023/03/17 08:18:52;;;;;;;0.63;0.38;;;;;;;;;;5095699;28;20354;-50
2023/03/17 08:21:17;;;;;;;1.98;0.20;;;;;;;;;;5094393;28;20134;-54
2023/03/17 08:23:43;;;;;;;1.83;0.93;;;;;;;;;;5095644;28;20043;-50
2023/03/17 08:26:09;;;;;;;3.50;0.40;;;;;;;;;;5094903;28;20037;-52
2023/03/17 08:28:34;;;;;;;3.17;1.85;;;;;;;;;;5093843;28;20016;-53
2023/03/17 08:31:12;;;;;;;0.88;0.13;;;;;;;;;;5092937;28;20024;-50
2023/03/17 08:33:39;;;;;;;6.15;1.20;;;;;;;;;;5093589;28;20060;-51
2023/03/17 08:36:05;;;;;;;4.97;0.68;;;;;;;;;;5093602;28;20099;-50
2023/03/17 08:38:31;;;;;;;3.47;0.73;;;;;;;;;;5093641;28;20020;-48
2023/03/17 08:41:01;;;;;;;1.25;0.28;;;;;;;;;;5093244;28;20020;-64
2023/03/17 08:43:27;;;;;;;0.40;0.20;;;;;;;;;;5093764;28;20012;-50
2023/03/17 08:45:57;;;;;;;5.30;0.60;;;;;;;;;;5093789;28;20076;-50
2023/03/17 08:48:23;;;;;;;1.42;0.40;;;;;;;;;;5093655;28;20526;-50
2023/03/17 08:50:48;;;;;;;2.08;0.70;;;;;;;;;;5092334;28;20024;-49
2023/03/17 08:53:13;;;;;;;3.10;0.88;;;;;;;;;;5093669;28;20503;-54
2023/03/17 08:55:39;;;;;;;5.05;1.08;;;;;;;;;;5094969;28;20037;-50
2023/03/17 08:58:05;;;;;;;3.55;1.00;;;;;;;;;;5093010;28;20052;-50
2023/03/17 09:00:31;;;;;;;3.17;1.17;;;;;;;;;;5094693;28;20491;-52
2023/03/17 09:02:57;;;;;;;1.88;0.55;;;;;;;;;;5093607;28;20027;-54
2023/03/17 09:05:22;;;;;;;2.95;0.80;;;;;;;;;;5091956;28;20017;-51
2023/03/17 09:07:48;;;;;;;3.75;0.70;;;;;;;;;;5094240;28;20016;-51
2023/03/17 09:10:15;;;;;;;0.73;0.47;;;;;;;;;;5093147;28;20073;-51
2023/03/17 09:12:41;;;;;;;1.80;0.40;;;;;;;;;;5093076;28;20033;-49
2023/03/17 09:15:07;;;;;;;5.05;0.40;;;;;;;;;;5091529;28;20024;-49
2023/03/17 09:17:33;;;;;;;6.18;1.30;;;;;;;;;;5091827;28;20020;-51
2023/03/17 09:19:59;;;;;;;4.00;1.10;;;;;;;;;;5074958;28;20487;-49
2023/03/17 09:22:24;;;;;;;10.48;0.50;;;;;;;;;;5091935;28;20020;-50
2023/03/17 09:24:50;;;;;;;3.72;0.65;;;;;;;;;;5092954;28;20024;-50
2023/03/17 09:27:15;;;;;;;3.63;0.82;;;;;;;;;;5091701;28;20115;-49
2023/03/17 09:29:41;;;;;;;7.47;1.58;;;;;;;;;;5092683;28;20034;-49
2023/03/17 09:32:07;;;;;;;1.90;0.60;;;;;;;;;;5091555;28;20107;-51
2023/03/17 09:34:34;;;;;;;8.02;0.65;;;;;;;;;;5092149;28;20073;-51
2023/03/17 09:37:00;;;;;;;2.38;0.38;;;;;;;;;;5092999;28;20024;-49
2023/03/17 09:39:26;;;;;;;1.58;0.60;;;;;;;;;;5095329;28;20103;-49
2023/03/17 09:41:55;;;;;;;0.68;0.40;;;;;;;;;;5097134;28;20028;-49
2023/03/17 09:44:27;;;;;;;1.98;0.50;;;;;;;;;;5096952;28;20020;-50
2023/03/17 09:47:12;;;;;;;0.45;0.28;;;;;;;;;;5095547;28;20118;-49
2023/03/17 09:49:41;;;;;;;2.90;0.35;;;;;;;;;;5095257;28;20028;-52
2023/03/17 09:52:12;;;;;;;4.30;0.30;;;;;;;;;;5096864;28;20024;-49
2023/03/17 09:54:37;;;;;;;1.45;0.40;;;;;;;;;;5095719;28;20016;-50
2023/03/17 09:57:12;;;;;;;6.65;0.60;;;;;;;;;;5096237;28;20062;-49
2023/03/17 09:59:40;;;;;;;0.65;0.30;;;;;;;;;;5095336;28;20388;-50
2023/03/17 10:02:27;;;;;;;1.80;0.35;;;;;;;;;;5096194;28;20020;-51
2023/03/17 10:04:53;;;;;;;0.20;0.17;;;;;;;;;;5096879;28;20022;-52
2023/03/17 10:07:25;;;;;;;5.22;0.47;;;;;;;;;;5096176;28;20020;-51
2023/03/17 10:09:51;;;;;;;5.38;1.15;;;;;;;;;;5094915;28;20028;-51
2023/03/17 10:12:35;;;;;;;5.35;0.52;;;;;;;;;;5096282;28;20023;-50
2023/03/17 10:15:05;;;;;;;0.98;0.30;;;;;;;;;;5096245;28;20481;-54
2023/03/17 10:17:34;;;;;;;0.47;0.10;;;;;;;;;;5097336;28;20050;-52
2023/03/17 10:20:03;;;;;;;0.68;0.10;;;;;;;;;;5096408;28;20032;-51
2023/03/17 10:22:29;;;;;;;2.75;0.47;;;;;;;;;;5096217;28;20023;-51
2023/03/17 10:25:00;;;;;;;0.35;0.15;;;;;;;;;;5096136;28;20392;-50
2023/03/17 10:27:26;;;;;;;4.55;0.20;;;;;;;;;;5096757;28;20032;-50
2023/03/17 10:29:52;;;;;;;6.55;1.77;;;;;;;;;;5096766;28;20093;-56
2023/03/17 10:32:17;;;;;;;4.55;0.20;;;;;;;;;;5096475;28;20016;-52
2023/03/17 10:34:43;;;;;;;2.10;0.50;;;;;;;;;;5094725;28;20024;-51
2023/03/17 10:37:14;;;;;;;0.63;0.20;;;;;;;;;;5095666;28;20012;-51
2023/03/17 10:39:50;;;;;;;0.98;0.20;;;;;;;;;;5096068;28;20091;-53
2023/03/17 10:42:24;;;;;;;0.50;0.20;;;;;;;;;;5094187;28;20024;-51
2023/03/17 10:44:57;;;;;;;1.83;0.50;;;;;;;;;;5095927;28;20073;-52
2023/03/17 10:47:33;;;;;;;5.70;0.80;;;;;;;;;;5095100;28;20016;-50
2023/03/17 10:50:01;;;;;;;2.25;0.60;;;;;;;;;;5094171;28;20385;-52
2023/03/17 10:52:29;;;;;;;1.55;0.55;;;;;;;;;;5094062;28;20141;-51
2023/03/17 10:54:59;;;;;;;4.05;0.30;;;;;;;;;;5095487;28;20059;-51
2023/03/17 10:57:25;;;;;;;0.65;0.30;;;;;;;;;;5095531;28;20100;-52
2023/03/17 10:59:52;;;;;;;2.70;0.55;;;;;;;;;;5095422;28;20016;-52
2023/03/17 11:02:17;;;;;;;2.85;0.17;;;;;;;;;;5095864;28;20472;-50
2023/03/17 11:04:43;;;;;;;8.95;2.97;;;;;;;;;;5093787;28;20045;-52
2023/03/17 11:07:16;;;;;;;1.98;0.30;;;;;;;;;;5093449;28;20043;-53
2023/03/17 11:09:42;;;;;;;2.70;0.45;;;;;;;;;;5093789;28;20456;-52
2023/03/17 11:12:25;;;;;;;2.15;0.70;;;;;;;;;;5093472;28;20154;-58
2023/03/17 11:14:54;;;;;;;2.05;0.50;;;;;;;;;;5095193;28;20031;-52
2023/03/17 11:17:24;;;;;;;1.95;0.50;;;;;;;;;;5092896;28;20365;-51
2023/03/17 11:19:50;;;;;;;4.32;0.57;;;;;;;;;;5093311;28;20016;-52
2023/03/17 11:22:20;;;;;;;11.05;1.00;;;;;;;;;;5093411;28;20464;-51
2023/03/17 11:24:46;;;;;;;2.05;0.40;;;;;;;;;;5094470;28;20456;-52
2023/03/17 11:27:26;;;;;;;0.60;0.35;;;;;;;;;;5094715;28;20134;-56
2023/03/17 11:30:08;;;;;;;3.33;0.30;;;;;;;;;;5096237;28;20028;-50
2023/03/17 11:32:46;;;;;;;2.28;0.43;;;;;;;;;;5097355;28;20047;-50
2023/03/17 11:35:15;;;;;;;4.30;0.50;;;;;;;;;;5095075;28;20103;-51
2023/03/17 11:37:40;;;;;;;5.47;0.82;;;;;;;;;;5094665;28;20034;-51
2023/03/17 11:40:06;;;;;;;4.22;0.50;;;;;;;;;;5093461;28;20373;-51
2023/03/17 11:42:38;;;;;;;2.75;1.08;;;;;;;;;;5094320;28;20465;-49
2023/03/17 11:45:09;;;;;;;6.63;0.47;;;;;;;;;;5094553;28;20028;-51
2023/03/17 11:47:49;;;;;;;5.60;1.23;;;;;;;;;;5093575;28;20024;-51
2023/03/17 11:50:33;;;;;;;5.97;0.30;;;;;;;;;;5094201;28;20034;-50
2023/03/17 11:53:02;;;;;;;2.65;0.55;;;;;;;;;;5092777;28;20028;-49
2023/03/17 11:55:40;;;;;;;3.17;0.55;;;;;;;;;;5093029;28;20400;-50
2023/03/17 11:58:11;;;;;;;5.20;0.85;;;;;;;;;;5092830;28;20047;-51
2023/03/17 12:00:44;;;;;;;1.98;0.60;;;;;;;;;;5094361;28;20016;-51
2023/03/17 12:03:15;;;;;;;0.77;0.30;;;;;;;;;;5093415;28;20460;-51
2023/03/17 12:05:41;;;;;;;2.58;0.80;;;;;;;;;;5094525;28;20028;-51
2023/03/17 12:08:16;;;;;;;2.97;0.93;;;;;;;;;;5094858;28;20051;-54
2023/03/17 12:10:49;;;;;;;3.72;0.63;;;;;;;;;;5093946;28;20028;-51
2023/03/17 12:13:22;;;;;;;7.03;0.77;;;;;;;;;;5093622;28;20469;-51
2023/03/17 12:15:57;;;;;;;0.85;0.30;;;;;;;;;;5093792;28;20052;-58
2023/03/17 12:18:31;;;;;;;4.20;0.60;;;;;;;;;;5094283;28;20012;-50
2023/03/17 12:21:19;;;;;;;4.18;1.05;;;;;;;;;;5093011;28;20038;-50
2023/03/17 12:24:20;;;;;;;4.85;0.50;;;;;;;;;;5096325;28;20024;-52
2023/03/17 12:26:48;;;;;;;3.03;0.50;;;;;;;;;;5016826;28;20049;-51
2023/03/17 12:29:32;;;;;;;2.60;0.50;;;;;;;;;;5077474;28;20076;-52
2023/03/17 12:32:02;;;;;;;4.80;0.90;;;;;;;;;;5092364;28;20124;-52
2023/03/17 12:34:30;;;;;;;8.35;0.85;;;;;;;;;;5094052;28;20020;-51
2023/03/17 12:36:56;;;;;;;1.63;0.52;;;;;;;;;;5093044;28;20445;-51
2023/03/17 12:39:27;;;;;;;3.55;0.47;;;;;;;;;;5093760;28;20043;-50
2023/03/17 12:41:52;;;;;;;7.45;0.63;;;;;;;;;;5092056;28;20023;-51
2023/03/17 12:44:38;;;;;;;0.20;0.13;;;;;;;;;;5093456;28;20377;-49
2023/03/17 12:47:06;;;;;;;2.90;0.50;;;;;;;;;;5093215;28;20551;-49
2023/03/17 12:49:31;;;;;;;4.03;0.80;;;;;;;;;;5093244;28;20047;-50
2023/03/17 12:52:00;;;;;;;1.15;0.20;;;;;;;;;;5093671;28;20099;-51
2023/03/17 12:54:27;;;;;;;1.85;0.80;;;;;;;;;;5093348;28;20023;-54
2023/03/17 12:56:59;;;;;;;1.42;0.15;;;;;;;;;;5092307;28;20056;-50
2023/03/17 12:59:25;;;;;;;1.80;0.38;;;;;;;;;;5093297;28;20090;-52
2023/03/17 13:01:57;;;;;;;2.38;0.80;;;;;;;;;;5093185;28;20513;-51
2023/03/17 13:04:23;;;;;;;2.13;0.82;;;;;;;;;;5092161;28;20020;-49
2023/03/17 13:07:07;;;;;;;2.72;0.55;;;;;;;;;;5093755;28;20367;-51
2023/03/17 13:09:37;;;;;;;4.70;0.75;;;;;;;;;;5091752;28;20024;-51
2023/03/17 13:12:04;;;;;;;1.30;0.40;;;;;;;;;;5092898;28;20059;-52
2023/03/17 13:14:40;;;;;;;5.32;0.80;;;;;;;;;;5091511;28;20016;-51
2023/03/17 13:17:23;;;;;;;0.32;0.30;;;;;;;;;;5091100;28;20022;-50
2023/03/17 13:20:08;;;;;;;1.65;0.90;;;;;;;;;;5091910;28;20388;-49
2023/03/17 13:22:34;;;;;;;;;;;;;;;;;;5093678;28;20020;-49
2023/03/17 13:25:26;;;;;;;1.95;0.38;;;;;;;;;;5091831;28;19962;-50
2023/03/17 13:27:51;;;;;;;1.48;0.52;;;;;;;;;;5089853;28;20035;-51
2023/03/17 13:30:25;;;;;;;2.38;0.77;;;;;;;;;;5092930;28;20028;-51
2023/03/17 13:33:18;;;;;;;4.15;1.60;;;;;;;;;;5093211;28;20107;-56
2023/03/17 13:35:44;;;;;;;1.40;0.40;;;;;;;;;;5093107;28;20024;-51
2023/03/17 13:38:20;;;;;;;4.20;0.80;;;;;;;;;;5093090;28;20023;-49
2023/03/17 13:41:05;;;;;;;10.43;1.23;;;;;;;;;;5091260;28;20020;-51
2023/03/17 13:43:50;;;;;;;2.25;0.80;;;;;;;;;;5093602;28;20020;-50
2023/03/17 13:46:25;;;;;;;6.53;1.73;;;;;;;;;;5094457;28;20024;-52
2023/03/17 13:48:52;;;;;;;2.25;0.40;;;;;;;;;;5091930;28;20032;-49
2023/03/17 13:51:31;;;;;;;3.55;0.73;;;;;;;;;;5092085;28;20044;-52
2023/03/17 13:54:16;;;;;;;3.80;0.50;;;;;;;;;;5093741;28;20046;-50
2023/03/17 13:56:42;;;;;;;1.45;0.47;;;;;;;;;;5079346;28;20131;-60
2023/03/17 13:59:18;;;;;;;6.70;1.15;;;;;;;;;;5095113;28;20477;-49
2023/03/17 14:01:52;;;;;;;8.00;1.20;;;;;;;;;;5092349;28;20031;-51
2023/03/17 14:04:19;;;;;;;2.63;0.82;;;;;;;;;;5093276;28;20029;-52
2023/03/17 14:06:46;;;;;;;3.13;1.58;;;;;;;;;;5092349;28;20092;-51
2023/03/17 14:09:35;;;;;;;9.27;1.65;;;;;;;;;;5093460;28;20414;-50
2023/03/17 14:12:02;;;;;;;2.58;0.45;;;;;;;;;;5083563;28;20412;-49
2023/03/17 14:14:35;;;;;;;1.95;0.30;;;;;;;;;;5092640;28;20028;-49
2023/03/17 14:17:04;;;;;;;1.75;0.50;;;;;;;;;;5092513;28;20103;-50
2023/03/17 14:19:30;;;;;;;3.92;1.25;;;;;;;;;;5092685;28;20042;-49
2023/03/17 14:22:19;;;;;;;2.88;1.25;;;;;;;;;;5092034;28;20431;-50
2023/03/17 14:24:45;;;;;;;8.70;1.27;;;;;;;;;;5092483;28;20050;-50
2023/03/17 14:27:11;;;;;;;4.72;0.85;;;;;;;;;;5097707;28;20502;-55
2023/03/17 14:29:36;;;;;;;5.20;0.75;;;;;;;;;;5096381;28;20032;-52
2023/03/17 14:32:03;;;;;;;0.93;0.55;;;;;;;;;;5095731;28;20024;-50
2023/03/17 14:34:29;;;;;;;9.32;1.30;;;;;;;;;;5095633;28;20024;-50
2023/03/17 14:36:59;;;;;;;4.53;1.63;;;;;;;;;;5094442;28;20020;-50
2023/03/17 14:39:25;;;;;;;6.50;0.70;;;;;;;;;;5095687;28;20107;-51
2023/03/17 14:41:58;;;;;;;3.25;0.77;;;;;;;;;;5095932;28;20058;-51
2023/03/17 14:44:23;;;;;;;5.80;1.30;;;;;;;;;;5095768;28;20055;-53
2023/03/17 14:46:49;;;;;;;3.95;0.80;;;;;;;;;;5094776;28;20062;-51
2023/03/17 14:49:16;;;;;;;1.15;0.68;;;;;;;;;;5095235;28;20073;-49